Fredericksbg, Texas
Current Conditions -  °F | °C
As of 11:55 PM on Thursday 27 Nov 2014 (Local Time) from KT82 Reporting Station
Clear Clear  
Wind Chill: 36°   Ceiling: Unl
Heat Index: 36°   Visibility: 10mi
Dew Point: 32°   Wind: 0mph
Humidity: 87%   Direction: NA
Pressure: 30.36"   Gusts: NA
Location:  30.3069°N, 98.8978°W
Report Text: KT82 280555Z AUTO 00000KT 10SM CLR 02/00 A3036 RMK AO2 T00210001 10121 20021 401621004
Loading
Personal Weather Stations






























Interactive Weather Map New forecast layout! Learn more

10-Day Weather Forecast

Advertisements
Track Severe Weather on mobile